createdAt,value
2022-08-07T00:01:44.588Z,0.43
2022-08-07T00:04:17.390Z,5.77
2022-08-07T00:06:52.728Z,1.57
2022-08-07T00:09:22.443Z,2.00
2022-08-07T00:11:55.510Z,8.03
2022-08-07T00:14:31.388Z,2.47
2022-08-07T00:17:02.931Z,1.33
2022-08-07T00:20:00.668Z,1.43
2022-08-07T00:22:24.526Z,3.10
2022-08-07T00:25:04.909Z,2.60
2022-08-07T00:27:51.699Z,1.87
2022-08-07T00:30:27.437Z,0.40
2022-08-07T00:32:58.584Z,2.10
2022-08-07T00:35:29.998Z,2.00
2022-08-07T00:37:58.965Z,2.37
2022-08-07T00:40:38.963Z,2.17
2022-08-07T00:43:10.499Z,1.97
2022-08-07T00:45:58.078Z,1.70
2022-08-07T00:48:31.871Z,2.97
2022-08-07T00:51:02.824Z,3.27
2022-08-07T00:53:39.239Z,8.00
2022-08-07T00:56:18.752Z,0.50
2022-08-07T00:58:49.554Z,3.50
2022-08-07T01:01:20.487Z,2.23
2022-08-07T01:03:57.313Z,3.90
2022-08-07T01:06:29.095Z,1.60
2022-08-07T01:09:01.232Z,1.03
2022-08-07T01:12:23.335Z,0.83
2022-08-07T01:14:21.447Z,5.27
2022-08-07T01:16:57.861Z,4.07
2022-08-07T01:19:32.556Z,3.23
2022-08-07T01:22:04.029Z,4.97
2022-08-07T01:24:37.593Z,3.03
2022-08-07T01:27:06.377Z,4.60
2022-08-07T01:29:48.634Z,2.00
2022-08-07T01:32:19.496Z,0.57
2022-08-07T01:34:52.117Z,3.10
2022-08-07T01:37:22.071Z,2.13
2022-08-07T01:39:50.538Z,5.17
2022-08-07T01:42:40.000Z,4.07
2022-08-07T01:45:10.012Z,4.67
2022-08-07T01:48:20.484Z,2.20
2022-08-07T01:50:40.228Z,2.90
2022-08-07T01:53:21.045Z,2.30
2022-08-07T01:55:55.654Z,7.57
2022-08-07T01:58:29.884Z,2.53
2022-08-07T02:01:09.924Z,1.23
2022-08-07T02:03:59.248Z,5.57
2022-08-07T02:06:32.535Z,5.20
2022-08-07T02:09:05.955Z,6.67
2022-08-07T02:12:04.861Z,2.77
2022-08-07T02:14:40.275Z,1.17
2022-08-07T02:17:11.173Z,2.20
2022-08-07T02:20:07.383Z,2.53
2022-08-07T02:22:33.305Z,4.17
2022-08-07T02:25:17.178Z,3.10
2022-08-07T02:27:51.977Z,3.97
2022-08-07T02:30:21.966Z,6.67
2022-08-07T02:33:01.070Z,4.00
2022-08-07T02:36:29.878Z,5.67
2022-08-07T02:38:31.470Z,3.83
2022-08-07T02:41:03.736Z,5.00
2022-08-07T02:43:33.996Z,3.57
2022-08-07T02:46:05.691Z,8.77
2022-08-07T02:48:34.460Z,6.40
2022-08-07T02:51:28.979Z,7.13
2022-08-07T02:54:01.771Z,3.93
2022-08-07T02:56:34.298Z,2.00
2022-08-07T02:59:05.769Z,3.90
2022-08-07T03:01:39.886Z,2.93
2022-08-07T03:04:12.655Z,8.87
2022-08-07T03:06:44.758Z,4.13
2022-08-07T03:09:41.879Z,4.53
2022-08-07T03:12:08.130Z,2.43
2022-08-07T03:14:52.205Z,1.77
2022-08-07T03:17:22.223Z,7.17
2022-08-07T03:19:55.251Z,8.03
2022-08-07T03:22:29.640Z,3.97
2022-08-07T03:24:59.962Z,7.33
2022-08-07T03:27:58.824Z,6.40
2022-08-07T03:30:20.565Z,6.97
2022-08-07T03:32:59.388Z,6.53
2022-08-07T03:35:43.979Z,5.50
2022-08-07T03:38:20.898Z,5.20
2022-08-07T03:40:54.046Z,8.37
2022-08-07T03:43:32.376Z,9.03
2022-08-07T03:46:03.388Z,8.03
2022-08-07T03:48:33.597Z,8.03
2022-08-07T03:51:15.251Z,4.23
2022-08-07T03:54:05.666Z,12.30
2022-08-07T03:56:40.246Z,8.50
2022-08-07T03:59:30.518Z,6.33
2022-08-07T04:01:58.834Z,5.07
2022-08-07T04:04:27.317Z,6.90
2022-08-07T04:06:55.992Z,5.43
2022-08-07T04:09:45.117Z,16.23
2022-08-07T04:12:27.520Z,8.37
2022-08-07T04:14:59.409Z,6.33
2022-08-07T04:18:11.252Z,8.37
2022-08-07T04:20:19.585Z,3.90
2022-08-07T04:22:53.560Z,6.03
2022-08-07T04:25:30.104Z,5.47
2022-08-07T04:28:04.910Z,5.77
2022-08-07T04:30:43.799Z,3.07
2022-08-07T04:33:25.606Z,10.43
2022-08-07T04:35:54.449Z,19.90
2022-08-07T04:38:23.874Z,12.40
2022-08-07T04:40:56.693Z,11.93
2022-08-07T04:44:10.266Z,12.03
2022-08-07T04:46:34.474Z,8.53
2022-08-07T04:49:17.744Z,8.23
2022-08-07T04:51:58.497Z,4.13
2022-08-07T04:54:34.329Z,6.53
2022-08-07T04:58:12.543Z,9.27
2022-08-07T05:00:14.172Z,11.87
2022-08-07T05:02:57.437Z,5.03
2022-08-07T05:05:53.590Z,14.37
2022-08-07T05:09:00.097Z,9.17
2022-08-07T05:11:19.290Z,13.00
2022-08-07T05:14:55.986Z,8.60
2022-08-07T05:17:01.677Z,13.37
2022-08-07T05:19:44.713Z,7.23
2022-08-07T05:22:26.501Z,7.87
2022-08-07T05:24:59.574Z,11.30
2022-08-07T05:28:03.123Z,6.97
2022-08-07T05:30:29.997Z,8.83
2022-08-07T05:33:03.338Z,14.73
2022-08-07T05:35:41.602Z,7.53
2022-08-07T05:38:12.255Z,12.40
2022-08-07T05:40:51.491Z,15.10
2022-08-07T05:43:49.994Z,18.57
2022-08-07T05:46:10.114Z,9.07
2022-08-07T05:48:58.175Z,14.30
2022-08-07T05:51:31.446Z,12.97
2022-08-07T05:54:12.732Z,8.37
2022-08-07T05:56:51.450Z,8.20
2022-08-07T05:59:22.444Z,11.67
2022-08-07T06:01:51.879Z,13.67
2022-08-07T06:04:26.277Z,7.87
2022-08-07T06:07:04.474Z,12.60
2022-08-07T06:09:44.899Z,14.37
2022-08-07T06:12:31.878Z,14.80
2022-08-07T06:15:05.308Z,11.77
2022-08-07T06:17:38.206Z,12.23
2022-08-07T06:20:12.644Z,9.07
2022-08-07T06:23:25.066Z,15.07
2022-08-07T06:25:54.449Z,10.87
2022-08-07T06:28:27.207Z,15.53
2022-08-07T06:30:58.261Z,12.73
2022-08-07T06:33:29.730Z,8.83
2022-08-07T06:36:13.415Z,11.93
2022-08-07T06:38:51.409Z,16.33
2022-08-07T06:42:02.540Z,14.73
2022-08-07T06:44:33.848Z,10.90
2022-08-07T06:47:12.692Z,7.60
2022-08-07T06:49:51.584Z,10.63
2022-08-07T06:52:31.811Z,7.87
2022-08-07T06:55:32.413Z,8.37
2022-08-07T06:58:01.639Z,11.10
2022-08-07T07:00:35.189Z,9.30
2022-08-07T07:03:08.807Z,12.17
2022-08-07T07:06:04.188Z,15.20
2022-08-07T07:08:28.978Z,11.53
2022-08-07T07:11:00.929Z,13.83
2022-08-07T07:13:56.072Z,11.33
2022-08-07T07:16:27.614Z,5.53
2022-08-07T07:19:40.997Z,10.17
2022-08-07T07:22:11.753Z,7.87
2022-08-07T07:24:43.004Z,11.50
2022-08-07T07:27:15.991Z,12.37
2022-08-07T07:30:09.056Z,9.87
2022-08-07T07:32:40.590Z,7.70
2022-08-07T07:35:13.174Z,10.77
2022-08-07T07:37:47.398Z,8.90
2022-08-07T07:40:26.047Z,8.07
2022-08-07T07:43:11.747Z,13.20
2022-08-07T07:46:38.153Z,5.50
2022-08-07T07:48:38.703Z,7.00
2022-08-07T07:51:08.629Z,15.37
2022-08-07T07:53:51.312Z,12.27
2022-08-07T07:56:29.656Z,8.20
2022-08-07T07:59:02.137Z,7.67
2022-08-07T08:02:01.667Z,5.93
2022-08-07T08:04:25.913Z,11.03
2022-08-07T08:07:00.563Z,10.07
2022-08-07T08:09:30.047Z,8.17
2022-08-07T08:12:03.939Z,13.30
2022-08-07T08:14:37.107Z,12.10
2022-08-07T08:17:55.632Z,8.73
2022-08-07T08:20:17.082Z,8.13
2022-08-07T08:23:08.219Z,9.80
2022-08-07T08:25:58.215Z,8.15
2022-08-07T08:28:38.091Z,8.25
2022-08-07T08:31:16.452Z,5.57
2022-08-07T08:33:49.262Z,7.80
2022-08-07T08:36:29.672Z,9.15
2022-08-07T08:39:02.868Z,12.70
2022-08-07T08:41:58.386Z,9.15
2022-08-07T08:44:37.266Z,4.53
2022-08-07T08:47:25.229Z,7.30
2022-08-07T08:50:04.491Z,9.00
2022-08-07T08:52:40.945Z,8.15
2022-08-07T08:55:54.868Z,5.95
2022-08-07T08:58:29.544Z,6.97
2022-08-07T09:01:15.179Z,12.50
2022-08-07T09:03:57.857Z,3.45
2022-08-07T09:06:42.679Z,8.38
2022-08-07T09:09:33.273Z,5.45
2022-08-07T09:12:30.555Z,8.48
2022-08-07T09:16:23.531Z,4.50
2022-08-07T09:18:22.653Z,5.15
2022-08-07T09:21:05.529Z,4.05
2022-08-07T09:24:28.730Z,4.32
2022-08-07T09:26:47.785Z,2.90
2022-08-07T09:30:06.240Z,6.00
2022-08-07T09:32:26.933Z,5.20
2022-08-07T09:36:04.889Z,5.57
2022-08-07T09:38:18.338Z,6.15
2022-08-07T09:41:09.101Z,7.90
2022-08-07T09:44:06.051Z,2.83
2022-08-07T09:47:50.581Z,3.80
2022-08-07T09:50:01.779Z,9.27
2022-08-07T09:52:51.595Z,8.35
2022-08-07T09:56:02.777Z,6.43
2022-08-07T09:58:36.074Z,6.18
2022-08-07T10:01:51.042Z,6.55
2022-08-07T10:04:32.609Z,11.10
2022-08-07T10:07:24.301Z,8.27
2022-08-07T10:10:06.370Z,5.63
2022-08-07T10:13:29.803Z,6.90
2022-08-07T10:16:11.765Z,9.10
2022-08-07T10:18:57.475Z,5.78
2022-08-07T10:22:01.184Z,8.77
2022-08-07T10:25:06.979Z,10.68
2022-08-07T10:27:51.234Z,5.68
2022-08-07T10:30:29.201Z,5.60
2022-08-07T10:34:06.243Z,8.38
2022-08-07T10:36:29.271Z,7.47
2022-08-07T10:39:05.470Z,7.80
2022-08-07T10:41:54.752Z,8.53
2022-08-07T10:44:38.625Z,9.50
2022-08-07T10:47:26.846Z,6.65
2022-08-07T10:50:05.451Z,4.65
2022-08-07T10:52:40.076Z,5.10
2022-08-07T10:55:26.824Z,3.72
2022-08-07T10:58:36.676Z,4.03
2022-08-07T11:01:23.885Z,4.78
2022-08-07T11:04:31.442Z,5.00
2022-08-07T11:07:15.131Z,8.68
2022-08-07T11:10:09.537Z,7.75
2022-08-07T11:12:49.116Z,4.13
2022-08-07T11:15:31.565Z,3.58
2022-08-07T11:18:05.141Z,10.40
2022-08-07T11:20:44.500Z,4.70
2022-08-07T11:23:30.430Z,5.35
2022-08-07T11:26:13.103Z,2.60
2022-08-07T11:28:53.378Z,3.53
2022-08-07T11:31:33.262Z,4.10
2022-08-07T11:34:16.387Z,3.87
2022-08-07T11:37:01.014Z,4.77
2022-08-07T11:40:00.314Z,6.93
2022-08-07T11:42:39.759Z,4.67
2022-08-07T11:45:20.511Z,3.25
2022-08-07T11:48:09.837Z,3.13
2022-08-07T11:51:00.954Z,5.68
2022-08-07T11:54:01.613Z,9.52
2022-08-07T11:56:43.090Z,2.90
2022-08-07T12:00:11.218Z,3.53
2022-08-07T12:02:37.311Z,5.60
2022-08-07T12:05:41.055Z,2.77
2022-08-07T12:08:25.846Z,4.40
2022-08-07T12:11:20.465Z,5.07
2022-08-07T12:13:57.798Z,3.57
2022-08-07T12:16:30.863Z,2.72
2022-08-07T12:19:10.740Z,2.33
2022-08-07T12:21:55.693Z,3.63
2022-08-07T12:25:07.515Z,1.67
2022-08-07T12:28:04.010Z,2.05
2022-08-07T12:30:34.677Z,1.65
2022-08-07T12:33:18.984Z,3.58
2022-08-07T12:35:58.039Z,3.75
2022-08-07T12:38:42.844Z,2.47
2022-08-07T12:41:17.390Z,3.78
2022-08-07T12:44:04.381Z,3.30
2022-08-07T12:46:52.115Z,2.65
2022-08-07T12:49:44.238Z,3.78
2022-08-07T12:52:27.119Z,3.85
2022-08-07T12:55:03.769Z,2.72
2022-08-07T12:57:39.276Z,2.03
2022-08-07T13:00:35.983Z,3.10
2022-08-07T13:03:54.995Z,3.50
2022-08-07T13:06:54.311Z,7.53
2022-08-07T13:10:21.438Z,6.80
2022-08-07T13:12:47.737Z,3.38
2022-08-07T13:15:31.816Z,2.53
2022-08-07T13:18:11.330Z,2.67
2022-08-07T13:21:03.726Z,4.63
2022-08-07T13:24:02.011Z,2.80
2022-08-07T13:26:36.809Z,3.80
2022-08-07T13:29:13.861Z,4.25
2022-08-07T13:31:57.848Z,1.50
2022-08-07T13:34:39.334Z,2.60
2022-08-07T13:37:22.038Z,2.10
2022-08-07T13:40:36.127Z,3.30
2022-08-07T13:42:53.729Z,4.95
2022-08-07T13:46:11.711Z,2.65
2022-08-07T13:48:20.609Z,3.65
2022-08-07T13:51:27.166Z,3.28
2022-08-07T13:54:00.406Z,3.23
2022-08-07T13:56:35.658Z,1.00
2022-08-07T13:59:13.165Z,2.60
2022-08-07T14:02:04.161Z,4.07
2022-08-07T14:04:49.204Z,1.77
2022-08-07T14:07:21.315Z,4.72
2022-08-07T14:10:03.014Z,4.47
2022-08-07T14:12:55.191Z,3.43
2022-08-07T14:15:31.616Z,2.20
2022-08-07T14:18:27.349Z,2.83
2022-08-07T14:21:08.157Z,3.30
2022-08-07T14:24:00.674Z,2.13
2022-08-07T14:26:37.191Z,3.27
2022-08-07T14:30:02.621Z,2.30
2022-08-07T14:32:04.486Z,2.53
2022-08-07T14:34:35.134Z,4.73
2022-08-07T14:37:18.635Z,1.83
2022-08-07T14:40:16.211Z,3.93
2022-08-07T14:43:55.380Z,5.37
2022-08-07T14:48:22.126Z,3.20
2022-08-07T14:51:00.124Z,2.20
2022-08-07T14:56:29.585Z,2.27
2022-08-07T14:59:03.094Z,1.50
2022-08-07T15:01:51.496Z,4.30
2022-08-07T15:04:25.186Z,2.87
2022-08-07T15:06:55.113Z,1.20
2022-08-07T15:12:20.969Z,2.03
2022-08-07T15:13:05.805Z,3.13
2022-08-07T15:14:59.611Z,0.50
2022-08-07T15:17:54.945Z,1.53
2022-08-07T15:20:32.778Z,3.33
2022-08-07T15:25:02.481Z,1.83
2022-08-07T15:26:22.179Z,2.37
2022-08-07T15:32:01.579Z,2.67
2022-08-07T15:34:37.284Z,2.07
2022-08-07T15:37:27.926Z,1.87
2022-08-07T15:39:59.827Z,3.50
2022-08-07T15:42:52.153Z,4.50
2022-08-07T15:45:56.400Z,2.87
2022-08-07T15:48:31.381Z,5.07
2022-08-07T15:53:59.347Z,5.30
2022-08-07T15:56:34.382Z,1.07
2022-08-07T15:59:06.772Z,1.23
2022-08-07T16:02:01.786Z,3.03
2022-08-07T16:04:33.566Z,1.83
2022-08-07T16:08:28.395Z,2.43
2022-08-07T16:10:07.391Z,1.63
2022-08-07T16:13:01.149Z,2.73
2022-08-07T16:15:57.257Z,1.67
2022-08-07T16:18:50.796Z,1.80
2022-08-07T16:22:02.424Z,1.83
2022-08-07T16:24:34.813Z,1.87
2022-08-07T16:27:18.438Z,2.40
2022-08-07T16:30:30.171Z,5.50
2022-08-07T16:34:02.580Z,5.73
2022-08-07T16:36:22.629Z,1.13
2022-08-07T16:39:33.975Z,3.63
2022-08-07T16:42:32.231Z,1.30
2022-08-07T16:46:33.467Z,3.60
2022-08-07T16:50:20.185Z,3.70
2022-08-07T16:52:51.549Z,3.77
2022-08-07T16:55:19.741Z,2.10
2022-08-07T16:58:03.742Z,2.57
2022-08-07T17:00:42.623Z,2.30
2022-08-07T17:03:57.895Z,3.37
2022-08-07T17:06:44.790Z,7.97
2022-08-07T17:10:06.184Z,4.60
2022-08-07T17:12:36.730Z,2.53
2022-08-07T17:15:08.710Z,4.67
2022-08-07T17:17:50.474Z,1.53
2022-08-07T17:20:32.902Z,3.47
2022-08-07T17:23:16.201Z,3.70
2022-08-07T17:25:57.131Z,2.47
2022-08-07T17:28:35.333Z,1.73
2022-08-07T17:31:16.033Z,3.17
2022-08-07T17:34:18.226Z,4.33
2022-08-07T17:36:57.507Z,1.77
2022-08-07T17:39:58.702Z,2.67
2022-08-07T17:42:58.578Z,5.00
2022-08-07T17:45:35.116Z,3.50
2022-08-07T17:48:11.254Z,5.43
2022-08-07T17:51:01.684Z,3.50
2022-08-07T17:53:59.742Z,5.17
2022-08-07T17:56:33.653Z,4.77
2022-08-07T17:59:17.141Z,2.33
2022-08-07T18:01:56.850Z,5.43
2022-08-07T18:04:34.800Z,3.07
2022-08-07T18:07:20.816Z,1.13
2022-08-07T18:10:05.738Z,6.50
2022-08-07T18:12:49.611Z,4.63
2022-08-07T18:15:23.986Z,4.83
2022-08-07T18:18:46.908Z,3.20
2022-08-07T18:21:40.230Z,2.57
2022-08-07T18:24:02.158Z,2.93
2022-08-07T18:27:26.101Z,3.20
2022-08-07T18:30:32.529Z,1.90
2022-08-07T18:33:34.481Z,3.03
2022-08-07T18:36:15.909Z,2.83
2022-08-07T18:40:05.705Z,3.53
2022-08-07T18:42:12.813Z,1.80
2022-08-07T18:45:43.415Z,2.47
2022-08-07T18:48:00.946Z,5.73
2022-08-07T18:50:55.766Z,10.33
2022-08-07T18:53:41.268Z,4.50
2022-08-07T18:56:17.709Z,2.57
2022-08-07T18:59:01.135Z,2.50
2022-08-07T19:02:19.029Z,5.67
2022-08-07T19:04:56.198Z,4.83
2022-08-07T19:07:34.915Z,2.93
2022-08-07T19:10:18.218Z,2.57
2022-08-07T19:12:59.515Z,4.83
2022-08-07T19:16:05.105Z,3.73
2022-08-07T19:18:44.785Z,2.73
2022-08-07T19:21:47.443Z,5.73
2022-08-07T19:24:30.691Z,2.77
2022-08-07T19:28:29.920Z,6.37
2022-08-07T19:31:05.543Z,3.50
2022-08-07T19:32:52.162Z,7.43
2022-08-07T19:35:33.172Z,5.23
2022-08-07T19:38:15.128Z,3.13
2022-08-07T19:40:50.606Z,3.93
2022-08-07T19:43:50.123Z,2.93
2022-08-07T19:46:11.261Z,3.33
2022-08-07T19:48:44.467Z,3.17
2022-08-07T19:51:51.340Z,7.63
2022-08-07T19:54:32.372Z,4.10
2022-08-07T19:58:02.227Z,4.60
2022-08-07T20:00:02.851Z,3.87
2022-08-07T20:02:40.480Z,8.03
2022-08-07T20:05:28.204Z,8.57
2022-08-07T20:08:00.867Z,2.50
2022-08-07T20:10:51.939Z,4.70
2022-08-07T20:13:32.017Z,4.27
2022-08-07T20:16:02.993Z,6.67
2022-08-07T20:18:34.349Z,7.50
2022-08-07T20:21:21.189Z,4.33
2022-08-07T20:23:54.333Z,3.37
2022-08-07T20:26:29.915Z,5.33
2022-08-07T20:29:10.545Z,7.50
2022-08-07T20:31:46.749Z,4.13
2022-08-07T20:34:48.808Z,6.27
2022-08-07T20:37:12.018Z,5.20
2022-08-07T20:40:04.058Z,6.20
2022-08-07T20:42:39.942Z,6.00
2022-08-07T20:46:24.005Z,3.47
2022-08-07T20:48:00.724Z,4.07
2022-08-07T20:50:30.782Z,2.93
2022-08-07T20:52:59.722Z,7.10
2022-08-07T20:55:32.132Z,5.47
2022-08-07T20:58:08.974Z,3.57
2022-08-07T21:00:46.546Z,6.23
2022-08-07T21:03:18.958Z,9.70
2022-08-07T21:05:57.118Z,6.67
2022-08-07T21:08:36.968Z,4.77
2022-08-07T21:11:14.773Z,9.40
2022-08-07T21:14:16.269Z,7.67
2022-08-07T21:16:56.482Z,4.90
2022-08-07T21:19:32.356Z,5.20
2022-08-07T21:22:20.315Z,6.30
2022-08-07T21:25:12.766Z,11.80
2022-08-07T21:28:01.675Z,5.33
2022-08-07T21:30:41.846Z,8.53
2022-08-07T21:33:16.280Z,8.00
2022-08-07T21:36:05.103Z,7.50
2022-08-07T21:38:49.766Z,6.43
2022-08-07T21:42:41.834Z,6.20
2022-08-07T21:46:05.101Z,6.27
2022-08-07T21:48:36.365Z,6.07
2022-08-07T21:51:25.422Z,9.00
2022-08-07T21:54:00.750Z,6.00
2022-08-07T21:56:48.256Z,9.87
2022-08-07T22:00:02.831Z,10.17
2022-08-07T22:02:29.754Z,7.70
2022-08-07T22:05:05.628Z,8.17
2022-08-07T22:07:58.009Z,5.60
2022-08-07T22:10:33.793Z,6.30
2022-08-07T22:13:09.242Z,13.47
2022-08-07T22:16:43.566Z,5.90
2022-08-07T22:18:40.889Z,6.00
2022-08-07T22:21:19.200Z,5.77
2022-08-07T22:23:54.349Z,7.27
2022-08-07T22:26:28.050Z,15.17
2022-08-07T22:29:08.904Z,6.03
2022-08-07T22:32:05.840Z,5.63
2022-08-07T22:34:54.109Z,6.97
2022-08-07T22:38:03.029Z,6.00
2022-08-07T22:40:36.989Z,7.70
2022-08-07T22:43:10.880Z,5.57
2022-08-07T22:46:21.127Z,9.00
2022-08-07T22:49:09.472Z,6.27
2022-08-07T22:52:00.618Z,4.53
2022-08-07T22:54:49.221Z,5.37
2022-08-07T22:57:43.505Z,5.60
2022-08-07T23:00:17.797Z,4.80
2022-08-07T23:03:09.091Z,6.03
2022-08-07T23:06:14.818Z,8.30
2022-08-07T23:08:58.534Z,6.73
2022-08-07T23:11:59.313Z,8.93
2022-08-07T23:14:38.952Z,12.70
2022-08-07T23:17:37.650Z,5.73
2022-08-07T23:20:51.915Z,8.20
2022-08-07T23:24:04.349Z,9.50
2022-08-07T23:26:41.390Z,6.90
2022-08-07T23:30:38.667Z,7.20
2022-08-07T23:34:34.244Z,7.37
2022-08-07T23:36:03.927Z,6.17
2022-08-07T23:38:54.969Z,7.63
2022-08-07T23:41:47.671Z,7.80
2022-08-07T23:45:04.810Z,9.10
2022-08-07T23:47:47.817Z,7.93
2022-08-07T23:50:44.601Z,10.30
2022-08-07T23:53:51.436Z,9.13
2022-08-07T23:56:21.410Z,7.70
2022-08-07T23:58:58.552Z,7.53
